sensor_id;sensor_type;location;lat;lon;timestamp;P1;durP1;ratioP1;P2;durP2;ratioP2
14030;SDS011;7090;49.436;8.490;2024-03-29T00:01:17;8.23;;;7.53;;
14030;SDS011;7090;49.436;8.490;2024-03-29T00:03:42;7.77;;;7.43;;
14030;SDS011;7090;49.436;8.490;2024-03-29T00:06:09;7.33;;;7.03;;
14030;SDS011;7090;49.436;8.490;2024-03-29T00:08:34;8.00;;;7.67;;
14030;SDS011;7090;49.436;8.490;2024-03-29T00:11:00;8.83;;;7.97;;
14030;SDS011;7090;49.436;8.490;2024-03-29T00:13:26;8.10;;;7.80;;
14030;SDS011;7090;49.436;8.490;2024-03-29T00:15:51;8.50;;;8.10;;
14030;SDS011;7090;49.436;8.490;2024-03-29T00:18:17;8.53;;;8.13;;
14030;SDS011;7090;49.436;8.490;2024-03-29T00:20:42;9.43;;;8.87;;
14030;SDS011;7090;49.436;8.490;2024-03-29T00:23:08;8.63;;;8.13;;
14030;SDS011;7090;49.436;8.490;2024-03-29T00:25:33;8.40;;;8.00;;
14030;SDS011;7090;49.436;8.490;2024-03-29T00:27:59;9.10;;;8.47;;
14030;SDS011;7090;49.436;8.490;2024-03-29T00:30:26;8.90;;;8.30;;
14030;SDS011;7090;49.436;8.490;2024-03-29T00:32:51;8.80;;;8.40;;
14030;SDS011;7090;49.436;8.490;2024-03-29T00:35:17;7.97;;;7.67;;
14030;SDS011;7090;49.436;8.490;2024-03-29T00:37:44;8.20;;;7.90;;
14030;SDS011;7090;49.436;8.490;2024-03-29T00:40:10;8.43;;;8.03;;
14030;SDS011;7090;49.436;8.490;2024-03-29T00:42:36;8.50;;;8.10;;
14030;SDS011;7090;49.436;8.490;2024-03-29T00:45:01;9.40;;;8.90;;
14030;SDS011;7090;49.436;8.490;2024-03-29T00:47:27;8.80;;;8.40;;
14030;SDS011;7090;49.436;8.490;2024-03-29T00:49:53;8.73;;;8.33;;
14030;SDS011;7090;49.436;8.490;2024-03-29T00:52:18;8.80;;;8.40;;
14030;SDS011;7090;49.436;8.490;2024-03-29T00:54:44;8.33;;;8.00;;
14030;SDS011;7090;49.436;8.490;2024-03-29T00:57:09;8.70;;;8.30;;
14030;SDS011;7090;49.436;8.490;2024-03-29T00:59:38;8.30;;;7.90;;
14030;SDS011;7090;49.436;8.490;2024-03-29T01:02:04;8.53;;;8.10;;
14030;SDS011;7090;49.436;8.490;2024-03-29T01:04:29;8.30;;;7.90;;
14030;SDS011;7090;49.436;8.490;2024-03-29T01:06:55;8.47;;;8.07;;
14030;SDS011;7090;49.436;8.490;2024-03-29T01:09:21;8.70;;;8.20;;
14030;SDS011;7090;49.436;8.490;2024-03-29T01:11:46;8.60;;;8.20;;
14030;SDS011;7090;49.436;8.490;2024-03-29T01:14:12;8.50;;;8.10;;
14030;SDS011;7090;49.436;8.490;2024-03-29T01:16:38;8.50;;;8.10;;
14030;SDS011;7090;49.436;8.490;2024-03-29T01:19:03;8.03;;;7.73;;
14030;SDS011;7090;49.436;8.490;2024-03-29T01:21:30;8.70;;;8.30;;
14030;SDS011;7090;49.436;8.490;2024-03-29T01:23:56;8.40;;;8.10;;
14030;SDS011;7090;49.436;8.490;2024-03-29T01:26:21;9.07;;;8.57;;
14030;SDS011;7090;49.436;8.490;2024-03-29T01:28:47;9.30;;;8.80;;
14030;SDS011;7090;49.436;8.490;2024-03-29T01:31:12;8.80;;;8.40;;
14030;SDS011;7090;49.436;8.490;2024-03-29T01:33:38;8.90;;;8.47;;
14030;SDS011;7090;49.436;8.490;2024-03-29T01:36:06;8.90;;;8.50;;
14030;SDS011;7090;49.436;8.490;2024-03-29T01:38:32;8.93;;;8.53;;
14030;SDS011;7090;49.436;8.490;2024-03-29T01:40:58;8.87;;;8.23;;
14030;SDS011;7090;49.436;8.490;2024-03-29T01:43:23;9.07;;;8.57;;
14030;SDS011;7090;49.436;8.490;2024-03-29T01:45:50;8.20;;;7.90;;
14030;SDS011;7090;49.436;8.490;2024-03-29T01:48:18;8.60;;;8.20;;
14030;SDS011;7090;49.436;8.490;2024-03-29T01:50:45;8.30;;;8.00;;
14030;SDS011;7090;49.436;8.490;2024-03-29T01:53:12;8.30;;;8.00;;
14030;SDS011;7090;49.436;8.490;2024-03-29T01:55:39;8.23;;;7.90;;
14030;SDS011;7090;49.436;8.490;2024-03-29T01:58:06;7.50;;;7.20;;
14030;SDS011;7090;49.436;8.490;2024-03-29T02:00:34;8.20;;;7.80;;
14030;SDS011;7090;49.436;8.490;2024-03-29T02:03:06;8.30;;;7.90;;
14030;SDS011;7090;49.436;8.490;2024-03-29T02:05:39;7.63;;;7.33;;
14030;SDS011;7090;49.436;8.490;2024-03-29T02:08:06;8.03;;;7.73;;
14030;SDS011;7090;49.436;8.490;2024-03-29T02:10:33;8.40;;;7.80;;
14030;SDS011;7090;49.436;8.490;2024-03-29T02:13:00;8.53;;;8.20;;
14030;SDS011;7090;49.436;8.490;2024-03-29T02:15:27;7.90;;;7.60;;
14030;SDS011;7090;49.436;8.490;2024-03-29T02:17:53;8.40;;;8.00;;
14030;SDS011;7090;49.436;8.490;2024-03-29T02:20:19;8.50;;;8.10;;
14030;SDS011;7090;49.436;8.490;2024-03-29T02:22:49;8.73;;;8.33;;
14030;SDS011;7090;49.436;8.490;2024-03-29T02:25:19;9.20;;;8.70;;
14030;SDS011;7090;49.436;8.490;2024-03-29T02:27:45;8.53;;;8.03;;
14030;SDS011;7090;49.436;8.490;2024-03-29T02:30:14;8.20;;;7.90;;
14030;SDS011;7090;49.436;8.490;2024-03-29T02:32:40;8.60;;;8.07;;
14030;SDS011;7090;49.436;8.490;2024-03-29T02:35:06;8.83;;;8.33;;
14030;SDS011;7090;49.436;8.490;2024-03-29T02:37:32;8.87;;;8.47;;
14030;SDS011;7090;49.436;8.490;2024-03-29T02:39:58;8.40;;;8.00;;
14030;SDS011;7090;49.436;8.490;2024-03-29T02:42:24;8.67;;;8.33;;
14030;SDS011;7090;49.436;8.490;2024-03-29T02:44:49;8.80;;;8.40;;
14030;SDS011;7090;49.436;8.490;2024-03-29T02:47:15;8.60;;;8.30;;
14030;SDS011;7090;49.436;8.490;2024-03-29T02:49:40;9.53;;;8.70;;
14030;SDS011;7090;49.436;8.490;2024-03-29T02:52:06;9.20;;;8.80;;
14030;SDS011;7090;49.436;8.490;2024-03-29T02:54:32;8.50;;;8.20;;
14030;SDS011;7090;49.436;8.490;2024-03-29T02:56:58;8.47;;;8.10;;
14030;SDS011;7090;49.436;8.490;2024-03-29T02:59:23;8.80;;;8.40;;
14030;SDS011;7090;49.436;8.490;2024-03-29T03:01:49;8.40;;;8.10;;
14030;SDS011;7090;49.436;8.490;2024-03-29T03:04:14;8.40;;;8.00;;
14030;SDS011;7090;49.436;8.490;2024-03-29T03:06:40;8.60;;;8.20;;
14030;SDS011;7090;49.436;8.490;2024-03-29T03:09:05;8.80;;;8.30;;
14030;SDS011;7090;49.436;8.490;2024-03-29T03:11:50;8.50;;;8.20;;
14030;SDS011;7090;49.436;8.490;2024-03-29T03:14:15;8.50;;;8.10;;
14030;SDS011;7090;49.436;8.490;2024-03-29T03:16:41;8.57;;;8.17;;
14030;SDS011;7090;49.436;8.490;2024-03-29T03:19:06;8.30;;;8.00;;
14030;SDS011;7090;49.436;8.490;2024-03-29T03:21:32;8.30;;;8.00;;
14030;SDS011;7090;49.436;8.490;2024-03-29T03:23:58;8.70;;;8.20;;
14030;SDS011;7090;49.436;8.490;2024-03-29T03:26:23;8.70;;;8.17;;
14030;SDS011;7090;49.436;8.490;2024-03-29T03:28:49;8.37;;;7.90;;
14030;SDS011;7090;49.436;8.490;2024-03-29T03:31:14;8.03;;;7.73;;
14030;SDS011;7090;49.436;8.490;2024-03-29T03:33:40;8.70;;;8.30;;
14030;SDS011;7090;49.436;8.490;2024-03-29T03:36:05;9.00;;;8.60;;
14030;SDS011;7090;49.436;8.490;2024-03-29T03:38:31;8.40;;;8.10;;
14030;SDS011;7090;49.436;8.490;2024-03-29T03:40:59;8.50;;;8.10;;
14030;SDS011;7090;49.436;8.490;2024-03-29T03:43:25;8.73;;;8.30;;
14030;SDS011;7090;49.436;8.490;2024-03-29T03:45:50;9.13;;;8.50;;
14030;SDS011;7090;49.436;8.490;2024-03-29T03:48:16;8.43;;;8.13;;
14030;SDS011;7090;49.436;8.490;2024-03-29T03:50:42;8.97;;;8.30;;
14030;SDS011;7090;49.436;8.490;2024-03-29T03:53:07;8.20;;;7.90;;
14030;SDS011;7090;49.436;8.490;2024-03-29T03:55:36;7.83;;;7.53;;
14030;SDS011;7090;49.436;8.490;2024-03-29T03:58:02;8.17;;;7.87;;
14030;SDS011;7090;49.436;8.490;2024-03-29T04:00:28;7.53;;;7.23;;
14030;SDS011;7090;49.436;8.490;2024-03-29T04:02:54;8.40;;;7.90;;
14030;SDS011;7090;49.436;8.490;2024-03-29T04:05:21;7.87;;;7.47;;
14030;SDS011;7090;49.436;8.490;2024-03-29T04:07:47;7.57;;;7.27;;
14030;SDS011;7090;49.436;8.490;2024-03-29T04:10:13;7.97;;;7.57;;
14030;SDS011;7090;49.436;8.490;2024-03-29T04:12:40;7.40;;;7.10;;
14030;SDS011;7090;49.436;8.490;2024-03-29T04:15:06;7.30;;;7.00;;
14030;SDS011;7090;49.436;8.490;2024-03-29T04:17:32;7.40;;;7.10;;
14030;SDS011;7090;49.436;8.490;2024-03-29T04:19:58;6.90;;;6.70;;
14030;SDS011;7090;49.436;8.490;2024-03-29T04:22:24;7.50;;;6.80;;
14030;SDS011;7090;49.436;8.490;2024-03-29T04:24:50;6.30;;;6.10;;
14030;SDS011;7090;49.436;8.490;2024-03-29T04:27:16;6.50;;;6.30;;
14030;SDS011;7090;49.436;8.490;2024-03-29T04:29:41;6.70;;;6.40;;
14030;SDS011;7090;49.436;8.490;2024-03-29T04:32:07;7.23;;;6.93;;
14030;SDS011;7090;49.436;8.490;2024-03-29T04:34:33;6.60;;;6.40;;
14030;SDS011;7090;49.436;8.490;2024-03-29T04:36:59;6.33;;;6.10;;
14030;SDS011;7090;49.436;8.490;2024-03-29T04:39:24;6.83;;;6.50;;
14030;SDS011;7090;49.436;8.490;2024-03-29T04:41:50;6.67;;;6.37;;
14030;SDS011;7090;49.436;8.490;2024-03-29T04:44:23;6.40;;;6.20;;
14030;SDS011;7090;49.436;8.490;2024-03-29T04:46:50;6.57;;;6.20;;
14030;SDS011;7090;49.436;8.490;2024-03-29T04:49:18;6.00;;;5.80;;
14030;SDS011;7090;49.436;8.490;2024-03-29T04:51:48;6.23;;;5.83;;
14030;SDS011;7090;49.436;8.490;2024-03-29T04:54:14;6.30;;;6.10;;
14030;SDS011;7090;49.436;8.490;2024-03-29T04:56:41;6.73;;;6.43;;
14030;SDS011;7090;49.436;8.490;2024-03-29T04:59:07;6.33;;;6.13;;
14030;SDS011;7090;49.436;8.490;2024-03-29T05:01:34;5.90;;;5.70;;
14030;SDS011;7090;49.436;8.490;2024-03-29T05:04:00;6.43;;;5.90;;
14030;SDS011;7090;49.436;8.490;2024-03-29T05:06:26;6.00;;;5.80;;
14030;SDS011;7090;49.436;8.490;2024-03-29T05:08:51;5.90;;;5.70;;
14030;SDS011;7090;49.436;8.490;2024-03-29T05:11:17;5.80;;;5.60;;
14030;SDS011;7090;49.436;8.490;2024-03-29T05:13:44;5.70;;;5.50;;
14030;SDS011;7090;49.436;8.490;2024-03-29T05:16:10;5.30;;;5.10;;
14030;SDS011;7090;49.436;8.490;2024-03-29T05:18:35;5.50;;;5.30;;
14030;SDS011;7090;49.436;8.490;2024-03-29T05:21:01;5.50;;;5.30;;
14030;SDS011;7090;49.436;8.490;2024-03-29T05:23:27;5.47;;;5.27;;
14030;SDS011;7090;49.436;8.490;2024-03-29T05:25:52;5.50;;;5.30;;
14030;SDS011;7090;49.436;8.490;2024-03-29T05:28:18;6.03;;;5.83;;
14030;SDS011;7090;49.436;8.490;2024-03-29T05:30:44;5.90;;;5.70;;
14030;SDS011;7090;49.436;8.490;2024-03-29T05:33:09;6.20;;;6.00;;
14030;SDS011;7090;49.436;8.490;2024-03-29T05:35:35;6.00;;;5.80;;
14030;SDS011;7090;49.436;8.490;2024-03-29T05:38:01;5.93;;;5.73;;
14030;SDS011;7090;49.436;8.490;2024-03-29T05:40:27;5.83;;;5.63;;
14030;SDS011;7090;49.436;8.490;2024-03-29T05:42:53;5.73;;;5.53;;
14030;SDS011;7090;49.436;8.490;2024-03-29T05:45:26;5.90;;;5.70;;
14030;SDS011;7090;49.436;8.490;2024-03-29T05:47:53;6.33;;;6.13;;
14030;SDS011;7090;49.436;8.490;2024-03-29T05:50:20;5.83;;;5.63;;
14030;SDS011;7090;49.436;8.490;2024-03-29T05:52:46;6.00;;;5.80;;
14030;SDS011;7090;49.436;8.490;2024-03-29T05:55:11;5.60;;;5.40;;
14030;SDS011;7090;49.436;8.490;2024-03-29T05:57:37;5.57;;;5.37;;
14030;SDS011;7090;49.436;8.490;2024-03-29T06:00:06;6.10;;;5.90;;
14030;SDS011;7090;49.436;8.490;2024-03-29T06:02:33;6.30;;;6.10;;
14030;SDS011;7090;49.436;8.490;2024-03-29T06:04:59;6.20;;;6.00;;
14030;SDS011;7090;49.436;8.490;2024-03-29T06:07:25;5.80;;;5.60;;
14030;SDS011;7090;49.436;8.490;2024-03-29T06:09:53;7.13;;;6.73;;
14030;SDS011;7090;49.436;8.490;2024-03-29T06:12:19;6.20;;;6.00;;
14030;SDS011;7090;49.436;8.490;2024-03-29T06:14:44;6.30;;;6.10;;
14030;SDS011;7090;49.436;8.490;2024-03-29T06:17:29;5.30;;;5.10;;
14030;SDS011;7090;49.436;8.490;2024-03-29T06:19:54;5.40;;;5.20;;
14030;SDS011;7090;49.436;8.490;2024-03-29T06:22:24;5.60;;;5.40;;
14030;SDS011;7090;49.436;8.490;2024-03-29T06:24:51;5.80;;;5.60;;
14030;SDS011;7090;49.436;8.490;2024-03-29T06:27:20;5.77;;;5.57;;
14030;SDS011;7090;49.436;8.490;2024-03-29T06:29:48;6.03;;;5.73;;
14030;SDS011;7090;49.436;8.490;2024-03-29T06:32:17;5.70;;;5.50;;
14030;SDS011;7090;49.436;8.490;2024-03-29T06:34:43;5.70;;;5.50;;
14030;SDS011;7090;49.436;8.490;2024-03-29T06:37:10;5.70;;;5.50;;
14030;SDS011;7090;49.436;8.490;2024-03-29T06:39:35;5.70;;;5.50;;
14030;SDS011;7090;49.436;8.490;2024-03-29T06:42:01;5.67;;;5.47;;
14030;SDS011;7090;49.436;8.490;2024-03-29T06:44:27;6.73;;;6.33;;
14030;SDS011;7090;49.436;8.490;2024-03-29T06:46:53;5.97;;;5.77;;
14030;SDS011;7090;49.436;8.490;2024-03-29T06:49:19;5.80;;;5.60;;
14030;SDS011;7090;49.436;8.490;2024-03-29T06:51:44;6.03;;;5.83;;
14030;SDS011;7090;49.436;8.490;2024-03-29T06:54:10;5.47;;;5.27;;
14030;SDS011;7090;49.436;8.490;2024-03-29T06:56:36;5.60;;;5.40;;
14030;SDS011;7090;49.436;8.490;2024-03-29T06:59:01;5.20;;;5.00;;
14030;SDS011;7090;49.436;8.490;2024-03-29T07:01:27;6.27;;;6.07;;
14030;SDS011;7090;49.436;8.490;2024-03-29T07:03:52;5.93;;;5.70;;
14030;SDS011;7090;49.436;8.490;2024-03-29T07:06:18;6.20;;;6.00;;
14030;SDS011;7090;49.436;8.490;2024-03-29T07:08:44;6.87;;;6.50;;
14030;SDS011;7090;49.436;8.490;2024-03-29T07:11:10;6.30;;;6.10;;
14030;SDS011;7090;49.436;8.490;2024-03-29T07:13:35;6.20;;;6.00;;
14030;SDS011;7090;49.436;8.490;2024-03-29T07:16:02;6.30;;;6.10;;
14030;SDS011;7090;49.436;8.490;2024-03-29T07:18:28;6.80;;;6.60;;
14030;SDS011;7090;49.436;8.490;2024-03-29T07:20:54;7.10;;;6.80;;
14030;SDS011;7090;49.436;8.490;2024-03-29T07:23:20;7.43;;;7.13;;
14030;SDS011;7090;49.436;8.490;2024-03-29T07:25:56;7.30;;;7.00;;
14030;SDS011;7090;49.436;8.490;2024-03-29T07:28:23;7.13;;;6.83;;
14030;SDS011;7090;49.436;8.490;2024-03-29T07:30:49;7.40;;;7.10;;
14030;SDS011;7090;49.436;8.490;2024-03-29T07:33:18;6.70;;;6.47;;
14030;SDS011;7090;49.436;8.490;2024-03-29T07:35:46;7.23;;;6.93;;
14030;SDS011;7090;49.436;8.490;2024-03-29T07:38:12;6.90;;;6.70;;
14030;SDS011;7090;49.436;8.490;2024-03-29T07:40:41;7.10;;;6.80;;
14030;SDS011;7090;49.436;8.490;2024-03-29T07:43:07;6.93;;;6.63;;
14030;SDS011;7090;49.436;8.490;2024-03-29T07:45:33;7.30;;;7.00;;
14030;SDS011;7090;49.436;8.490;2024-03-29T07:47:58;6.93;;;6.60;;
14030;SDS011;7090;49.436;8.490;2024-03-29T07:50:24;6.33;;;6.10;;
14030;SDS011;7090;49.436;8.490;2024-03-29T07:52:49;6.50;;;6.20;;
14030;SDS011;7090;49.436;8.490;2024-03-29T07:55:16;6.80;;;6.40;;
14030;SDS011;7090;49.436;8.490;2024-03-29T07:57:41;6.40;;;6.20;;
14030;SDS011;7090;49.436;8.490;2024-03-29T08:00:07;6.50;;;6.30;;
14030;SDS011;7090;49.436;8.490;2024-03-29T08:02:35;6.40;;;6.20;;
14030;SDS011;7090;49.436;8.490;2024-03-29T08:05:01;6.37;;;6.07;;
14030;SDS011;7090;49.436;8.490;2024-03-29T08:07:26;6.17;;;5.97;;
14030;SDS011;7090;49.436;8.490;2024-03-29T08:09:52;6.93;;;6.50;;
14030;SDS011;7090;49.436;8.490;2024-03-29T08:12:17;6.07;;;5.87;;
14030;SDS011;7090;49.436;8.490;2024-03-29T08:14:43;6.10;;;5.90;;
14030;SDS011;7090;49.436;8.490;2024-03-29T08:17:09;6.20;;;6.00;;
14030;SDS011;7090;49.436;8.490;2024-03-29T08:19:35;5.93;;;5.73;;
14030;SDS011;7090;49.436;8.490;2024-03-29T08:22:01;6.30;;;6.00;;
14030;SDS011;7090;49.436;8.490;2024-03-29T08:24:30;5.33;;;5.13;;
14030;SDS011;7090;49.436;8.490;2024-03-29T08:26:55;6.20;;;5.90;;
14030;SDS011;7090;49.436;8.490;2024-03-29T08:29:21;5.43;;;5.23;;
14030;SDS011;7090;49.436;8.490;2024-03-29T08:31:47;6.30;;;6.00;;
14030;SDS011;7090;49.436;8.490;2024-03-29T08:34:12;6.13;;;5.53;;
14030;SDS011;7090;49.436;8.490;2024-03-29T08:36:39;5.10;;;4.90;;
14030;SDS011;7090;49.436;8.490;2024-03-29T08:39:04;5.30;;;5.10;;
14030;SDS011;7090;49.436;8.490;2024-03-29T08:41:30;5.53;;;5.30;;
14030;SDS011;7090;49.436;8.490;2024-03-29T08:43:56;5.80;;;5.50;;
14030;SDS011;7090;49.436;8.490;2024-03-29T08:46:22;5.67;;;5.37;;
14030;SDS011;7090;49.436;8.490;2024-03-29T08:48:48;5.63;;;5.33;;
14030;SDS011;7090;49.436;8.490;2024-03-29T08:51:13;5.23;;;5.03;;
14030;SDS011;7090;49.436;8.490;2024-03-29T08:53:42;5.40;;;5.20;;
14030;SDS011;7090;49.436;8.490;2024-03-29T08:56:07;5.70;;;5.40;;
14030;SDS011;7090;49.436;8.490;2024-03-29T08:58:33;5.77;;;5.47;;
14030;SDS011;7090;49.436;8.490;2024-03-29T09:00:58;6.03;;;5.73;;
14030;SDS011;7090;49.436;8.490;2024-03-29T09:03:26;6.13;;;5.83;;
14030;SDS011;7090;49.436;8.490;2024-03-29T09:05:51;6.53;;;5.97;;
14030;SDS011;7090;49.436;8.490;2024-03-29T09:08:17;5.70;;;5.50;;
14030;SDS011;7090;49.436;8.490;2024-03-29T09:10:43;6.57;;;6.27;;
14030;SDS011;7090;49.436;8.490;2024-03-29T09:13:09;6.50;;;6.20;;
14030;SDS011;7090;49.436;8.490;2024-03-29T09:15:35;7.03;;;6.73;;
14030;SDS011;7090;49.436;8.490;2024-03-29T09:18:01;7.20;;;6.80;;
14030;SDS011;7090;49.436;8.490;2024-03-29T09:20:36;7.20;;;6.90;;
14030;SDS011;7090;49.436;8.490;2024-03-29T09:23:02;7.70;;;7.30;;
14030;SDS011;7090;49.436;8.490;2024-03-29T09:25:29;8.10;;;7.50;;
14030;SDS011;7090;49.436;8.490;2024-03-29T09:27:55;6.77;;;6.53;;
14030;SDS011;7090;49.436;8.490;2024-03-29T09:30:20;7.20;;;6.80;;
14030;SDS011;7090;49.436;8.490;2024-03-29T09:32:47;7.40;;;6.90;;
14030;SDS011;7090;49.436;8.490;2024-03-29T09:35:15;7.30;;;7.00;;
14030;SDS011;7090;49.436;8.490;2024-03-29T09:37:40;7.30;;;7.00;;
14030;SDS011;7090;49.436;8.490;2024-03-29T09:40:07;7.47;;;7.07;;
14030;SDS011;7090;49.436;8.490;2024-03-29T09:42:35;6.60;;;6.30;;
14030;SDS011;7090;49.436;8.490;2024-03-29T09:45:04;6.70;;;6.30;;
14030;SDS011;7090;49.436;8.490;2024-03-29T09:47:31;6.70;;;6.50;;
14030;SDS011;7090;49.436;8.490;2024-03-29T09:49:59;6.87;;;6.57;;
14030;SDS011;7090;49.436;8.490;2024-03-29T09:52:28;6.30;;;6.00;;
14030;SDS011;7090;49.436;8.490;2024-03-29T09:54:54;6.70;;;6.30;;
14030;SDS011;7090;49.436;8.490;2024-03-29T09:57:21;6.47;;;6.17;;
14030;SDS011;7090;49.436;8.490;2024-03-29T09:59:49;6.63;;;6.43;;
14030;SDS011;7090;49.436;8.490;2024-03-29T10:02:15;7.40;;;6.90;;
14030;SDS011;7090;49.436;8.490;2024-03-29T10:04:47;6.57;;;6.37;;
14030;SDS011;7090;49.436;8.490;2024-03-29T10:07:16;6.33;;;6.13;;
14030;SDS011;7090;49.436;8.490;2024-03-29T10:09:43;6.40;;;6.20;;
14030;SDS011;7090;49.436;8.490;2024-03-29T10:12:09;5.80;;;5.60;;
14030;SDS011;7090;49.436;8.490;2024-03-29T10:14:48;6.60;;;6.20;;
14030;SDS011;7090;49.436;8.490;2024-03-29T10:17:18;6.27;;;6.00;;
14030;SDS011;7090;49.436;8.490;2024-03-29T10:19:44;6.53;;;6.13;;
14030;SDS011;7090;49.436;8.490;2024-03-29T10:22:10;6.70;;;6.30;;
14030;SDS011;7090;49.436;8.490;2024-03-29T10:24:36;5.93;;;5.73;;
14030;SDS011;7090;49.436;8.490;2024-03-29T10:27:02;5.37;;;5.17;;
14030;SDS011;7090;49.436;8.490;2024-03-29T10:29:28;5.47;;;5.27;;
14030;SDS011;7090;49.436;8.490;2024-03-29T10:31:55;5.43;;;5.23;;
14030;SDS011;7090;49.436;8.490;2024-03-29T10:34:21;6.10;;;5.80;;
14030;SDS011;7090;49.436;8.490;2024-03-29T10:36:48;6.30;;;5.90;;
14030;SDS011;7090;49.436;8.490;2024-03-29T10:39:15;5.47;;;5.27;;
14030;SDS011;7090;49.436;8.490;2024-03-29T10:41:42;6.20;;;5.70;;
14030;SDS011;7090;49.436;8.490;2024-03-29T10:44:11;5.60;;;5.20;;
14030;SDS011;7090;49.436;8.490;2024-03-29T10:46:37;5.77;;;5.37;;
14030;SDS011;7090;49.436;8.490;2024-03-29T10:49:07;5.18;;;4.88;;
14030;SDS011;7090;49.436;8.490;2024-03-29T10:51:38;5.73;;;5.33;;
14030;SDS011;7090;49.436;8.490;2024-03-29T10:54:08;5.40;;;4.90;;
14030;SDS011;7090;49.436;8.490;2024-03-29T10:56:35;5.70;;;5.30;;
14030;SDS011;7090;49.436;8.490;2024-03-29T10:59:08;5.63;;;5.20;;
14030;SDS011;7090;49.436;8.490;2024-03-29T11:01:41;4.63;;;4.43;;
14030;SDS011;7090;49.436;8.490;2024-03-29T11:04:13;4.50;;;4.30;;
14030;SDS011;7090;49.436;8.490;2024-03-29T11:06:44;4.70;;;4.50;;
14030;SDS011;7090;49.436;8.490;2024-03-29T11:09:13;7.93;;;5.37;;
14030;SDS011;7090;49.436;8.490;2024-03-29T11:11:42;5.40;;;5.00;;
14030;SDS011;7090;49.436;8.490;2024-03-29T11:14:13;6.00;;;5.50;;
14030;SDS011;7090;49.436;8.490;2024-03-29T11:16:45;5.70;;;5.40;;
14030;SDS011;7090;49.436;8.490;2024-03-29T11:19:13;5.33;;;5.13;;
14030;SDS011;7090;49.436;8.490;2024-03-29T11:21:40;5.03;;;4.83;;
14030;SDS011;7090;49.436;8.490;2024-03-29T11:24:08;5.23;;;5.03;;
14030;SDS011;7090;49.436;8.490;2024-03-29T11:26:36;6.57;;;6.27;;
14030;SDS011;7090;49.436;8.490;2024-03-29T11:29:02;6.37;;;6.00;;
14030;SDS011;7090;49.436;8.490;2024-03-29T11:31:28;6.15;;;5.95;;
14030;SDS011;7090;49.436;8.490;2024-03-29T11:33:57;5.97;;;5.77;;
14030;SDS011;7090;49.436;8.490;2024-03-29T11:36:23;6.37;;;6.07;;
14030;SDS011;7090;49.436;8.490;2024-03-29T11:38:51;6.87;;;6.57;;
14030;SDS011;7090;49.436;8.490;2024-03-29T11:41:20;5.60;;;5.40;;
14030;SDS011;7090;49.436;8.490;2024-03-29T11:43:52;6.15;;;5.85;;
14030;SDS011;7090;49.436;8.490;2024-03-29T11:46:19;6.27;;;6.07;;
14030;SDS011;7090;49.436;8.490;2024-03-29T11:48:46;6.43;;;6.03;;
14030;SDS011;7090;49.436;8.490;2024-03-29T11:51:15;5.60;;;5.40;;
14030;SDS011;7090;49.436;8.490;2024-03-29T11:53:43;5.90;;;5.70;;
14030;SDS011;7090;49.436;8.490;2024-03-29T11:56:09;5.80;;;5.60;;
14030;SDS011;7090;49.436;8.490;2024-03-29T11:58:37;5.67;;;5.47;;
14030;SDS011;7090;49.436;8.490;2024-03-29T12:01:04;5.72;;;5.47;;
14030;SDS011;7090;49.436;8.490;2024-03-29T12:03:30;5.73;;;5.53;;
14030;SDS011;7090;49.436;8.490;2024-03-29T12:05:57;6.10;;;5.80;;
14030;SDS011;7090;49.436;8.490;2024-03-29T12:08:27;5.53;;;5.33;;
14030;SDS011;7090;49.436;8.490;2024-03-29T12:10:53;5.63;;;5.43;;
14030;SDS011;7090;49.436;8.490;2024-03-29T12:13:19;5.83;;;5.63;;
14030;SDS011;7090;49.436;8.490;2024-03-29T12:15:45;7.00;;;6.70;;
14030;SDS011;7090;49.436;8.490;2024-03-29T12:18:10;7.90;;;7.60;;
14030;SDS011;7090;49.436;8.490;2024-03-29T12:20:38;9.00;;;8.60;;
14030;SDS011;7090;49.436;8.490;2024-03-29T12:23:04;9.43;;;9.03;;
14030;SDS011;7090;49.436;8.490;2024-03-29T12:25:35;9.50;;;9.10;;
14030;SDS011;7090;49.436;8.490;2024-03-29T12:28:02;11.13;;;10.63;;
14030;SDS011;7090;49.436;8.490;2024-03-29T12:30:28;9.73;;;9.33;;
14030;SDS011;7090;49.436;8.490;2024-03-29T12:33:04;11.43;;;10.67;;
14030;SDS011;7090;49.436;8.490;2024-03-29T12:35:36;11.00;;;10.60;;
14030;SDS011;7090;49.436;8.490;2024-03-29T12:38:02;11.23;;;10.83;;
14030;SDS011;7090;49.436;8.490;2024-03-29T12:40:30;10.80;;;10.40;;
14030;SDS011;7090;49.436;8.490;2024-03-29T12:43:03;10.90;;;10.50;;
14030;SDS011;7090;49.436;8.490;2024-03-29T12:45:30;10.88;;;10.48;;
14030;SDS011;7090;49.436;8.490;2024-03-29T12:47:57;11.30;;;10.80;;
14030;SDS011;7090;49.436;8.490;2024-03-29T12:50:30;11.00;;;10.60;;
14030;SDS011;7090;49.436;8.490;2024-03-29T12:52:57;11.17;;;10.77;;
14030;SDS011;7090;49.436;8.490;2024-03-29T12:55:24;10.93;;;10.53;;
14030;SDS011;7090;49.436;8.490;2024-03-29T12:57:55;10.90;;;10.50;;
14030;SDS011;7090;49.436;8.490;2024-03-29T13:00:21;11.27;;;10.87;;
14030;SDS011;7090;49.436;8.490;2024-03-29T13:02:47;11.70;;;11.20;;
14030;SDS011;7090;49.436;8.490;2024-03-29T13:05:13;10.80;;;10.40;;
14030;SDS011;7090;49.436;8.490;2024-03-29T13:07:38;10.67;;;10.27;;
14030;SDS011;7090;49.436;8.490;2024-03-29T13:10:04;11.02;;;10.52;;
14030;SDS011;7090;49.436;8.490;2024-03-29T13:12:46;10.37;;;9.87;;
14030;SDS011;7090;49.436;8.490;2024-03-29T13:15:18;10.40;;;10.00;;
14030;SDS011;7090;49.436;8.490;2024-03-29T13:17:46;11.13;;;10.63;;
14030;SDS011;7090;49.436;8.490;2024-03-29T13:20:14;9.90;;;9.50;;
14030;SDS011;7090;49.436;8.490;2024-03-29T13:22:44;9.50;;;9.10;;
14030;SDS011;7090;49.436;8.490;2024-03-29T13:25:15;9.40;;;9.00;;
14030;SDS011;7090;49.436;8.490;2024-03-29T13:27:42;9.97;;;9.53;;
14030;SDS011;7090;49.436;8.490;2024-03-29T13:30:11;8.80;;;8.40;;
14030;SDS011;7090;49.436;8.490;2024-03-29T13:32:39;10.00;;;9.40;;
14030;SDS011;7090;49.436;8.490;2024-03-29T13:35:05;8.13;;;7.83;;
14030;SDS011;7090;49.436;8.490;2024-03-29T13:37:34;8.67;;;8.27;;
14030;SDS011;7090;49.436;8.490;2024-03-29T13:40:00;9.77;;;9.27;;
14030;SDS011;7090;49.436;8.490;2024-03-29T13:42:25;8.13;;;7.83;;
14030;SDS011;7090;49.436;8.490;2024-03-29T13:44:51;8.40;;;8.00;;
14030;SDS011;7090;49.436;8.490;2024-03-29T13:47:18;9.10;;;8.50;;
14030;SDS011;7090;49.436;8.490;2024-03-29T13:49:44;7.93;;;7.63;;
14030;SDS011;7090;49.436;8.490;2024-03-29T13:52:11;10.17;;;9.47;;
14030;SDS011;7090;49.436;8.490;2024-03-29T13:54:41;8.50;;;8.10;;
14030;SDS011;7090;49.436;8.490;2024-03-29T13:57:07;10.10;;;9.50;;
14030;SDS011;7090;49.436;8.490;2024-03-29T13:59:33;11.07;;;10.47;;
14030;SDS011;7090;49.436;8.490;2024-03-29T14:01:59;7.97;;;7.67;;
14030;SDS011;7090;49.436;8.490;2024-03-29T14:04:24;9.23;;;8.73;;
14030;SDS011;7090;49.436;8.490;2024-03-29T14:06:50;7.80;;;7.50;;
14030;SDS011;7090;49.436;8.490;2024-03-29T14:09:16;7.43;;;7.13;;
14030;SDS011;7090;49.436;8.490;2024-03-29T14:11:41;10.23;;;9.50;;
14030;SDS011;7090;49.436;8.490;2024-03-29T14:14:09;9.00;;;8.50;;
14030;SDS011;7090;49.436;8.490;2024-03-29T14:16:35;7.43;;;7.13;;
14030;SDS011;7090;49.436;8.490;2024-03-29T14:19:02;8.10;;;7.80;;
14030;SDS011;7090;49.436;8.490;2024-03-29T14:21:27;11.47;;;10.33;;
14030;SDS011;7090;49.436;8.490;2024-03-29T14:23:54;10.07;;;9.37;;
14030;SDS011;7090;49.436;8.490;2024-03-29T14:26:20;9.97;;;9.07;;
14030;SDS011;7090;49.436;8.490;2024-03-29T14:28:45;9.07;;;8.40;;
14030;SDS011;7090;49.436;8.490;2024-03-29T14:31:11;7.13;;;6.73;;
14030;SDS011;7090;49.436;8.490;2024-03-29T14:33:36;7.63;;;7.13;;
14030;SDS011;7090;49.436;8.490;2024-03-29T14:36:02;6.50;;;6.20;;
14030;SDS011;7090;49.436;8.490;2024-03-29T14:38:28;7.03;;;6.43;;
14030;SDS011;7090;49.436;8.490;2024-03-29T14:40:54;6.63;;;6.23;;
14030;SDS011;7090;49.436;8.490;2024-03-29T14:43:20;5.23;;;4.93;;
14030;SDS011;7090;49.436;8.490;2024-03-29T14:45:46;5.67;;;5.13;;
14030;SDS011;7090;49.436;8.490;2024-03-29T14:48:14;6.33;;;5.97;;
14030;SDS011;7090;49.436;8.490;2024-03-29T14:50:41;5.20;;;5.00;;
14030;SDS011;7090;49.436;8.490;2024-03-29T14:53:07;5.63;;;5.30;;
14030;SDS011;7090;49.436;8.490;2024-03-29T14:55:32;7.27;;;6.77;;
14030;SDS011;7090;49.436;8.490;2024-03-29T14:57:58;5.50;;;5.30;;